^^
Grace C. Lehan Memorial Weather Station Historical Data
Daily Summary for August 30, 2021 Units:  Metric    English   Both
Daily Weekly Monthly Yearly
  High: Low: Average:
Temperature: 4.2 °C -3.2 °C 0.8 °C
Dew Point: 0.1 °C -6.6 °C -3.3 °C
Humidity: 84% 64% 74%
Wind Speed: 5.5km/h 0km/h 0.6km/h
Wind Gust: 17.7km/h - -
Wind- - WSW
Pressure: 1015.5 hPa 1012.1 hPa -
Precipitation: 0 mm    
 
 
Tabular Data for August 30, 2021
Time Temperature Dew Point Pressure Wind Wind Speed Wind Gust Humidity Rainfall Rate (Hourly) solar
00:04 -1.3 °C -5.7 °C 1013.4 hPa Calm   9.7 km/h 72% 0 mm 0 W/m2
00:09 -1.3 °C -5.7 °C 1013.4 hPa Calm     72% 0 mm 0 W/m2
00:14 -1.4 °C -5.8 °C 1013.4 hPa Calm     72% 0 mm 0 W/m2
00:19 -1.4 °C -5.8 °C 1013.4 hPa Calm     72% 0 mm 0 W/m2
00:24 -1.5 °C -5.8 °C 1013.4 hPa Calm     72.8% 0 mm 0 W/m2
00:29 -1.6 °C -5.8 °C 1013.4 hPa Calm     73% 0 mm 0 W/m2
00:34 -1.6 °C -5.8 °C 1013.4 hPa WNW 0.3 km/h 4.8 km/h 73% 0 mm 0 W/m2
00:39 -1.7 °C -5.7 °C 1013.4 hPa Calm   4.8 km/h 74% 0 mm 0 W/m2
00:44 -1.7 °C -5.8 °C 1013.4 hPa Calm   4.8 km/h 74% 0 mm 0 W/m2
00:49 -1.8 °C -5.8 °C 1013.4 hPa Calm   4.8 km/h 74% 0 mm 0 W/m2
00:53 -1.8 °C -5.9 °C 1013.4 hPa WNW 2.6 km/h 11.3 km/h 74% 0 mm 0 W/m2
00:59 -1.8 °C -5.7 °C 1013.4 hPa Calm   11.3 km/h 75% 0 mm 0 W/m2
01:04 -1.9 °C -5.7 °C 1013.4 hPa Calm   11.3 km/h 75% 0 mm 0 W/m2
01:09 -1.9 °C -5.7 °C 1013.4 hPa Calm     75% 0 mm 0 W/m2
01:14 -1.9 °C -5.8 °C 1013.4 hPa Calm     75% 0 mm 0 W/m2
01:19 -2 °C -5.8 °C 1013.4 hPa Calm     75% 0 mm 0 W/m2
01:24 -2.1 °C -5.9 °C 1013.4 hPa Calm     75% 0 mm 0 W/m2
01:29 -2.1 °C -5.8 °C 1013.4 hPa Calm     75.6% 0 mm 0 W/m2
01:34 -2.2 °C -5.8 °C 1013.8 hPa Calm     76% 0 mm 0 W/m2
01:39 -2.2 °C -5.8 °C 1013.4 hPa Calm     76% 0 mm 0 W/m2
01:44 -2.2 °C -5.8 °C 1013.8 hPa Calm   1.6 km/h 76.7% 0 mm 0 W/m2
01:49 -2.3 °C -5.8 °C 1013.8 hPa WNW 0.5 km/h 3.2 km/h 77% 0 mm 0 W/m2
01:54 -2.3 °C -5.8 °C 1013.8 hPa WNW 3.7 km/h 11.3 km/h 77% 0 mm 0 W/m2
01:59 -2.3 °C -5.8 °C 1013.8 hPa WNW 1.9 km/h 11.3 km/h 76.7% 0 mm 0 W/m2
02:04 -2.3 °C -5.9 °C 1013.8 hPa WNW 1.8 km/h 11.3 km/h 76% 0 mm 0 W/m2
02:09 -2.2 °C -5.8 °C 1013.8 hPa WNW 4.3 km/h 16.1 km/h 76% 0 mm 0 W/m2
02:14 -2.1 °C -5.8 °C 1013.8 hPa WNW 1.3 km/h 16.1 km/h 76% 0 mm 0 W/m2
02:17 -2.1 °C -5.8 °C 1013.8 hPa WNW 0.8 km/h 16.1 km/h 75.3% 0 mm 0 W/m2
03:00 -1.8 °C -5.8 °C 1013.8 hPa NW 1.6 km/h 9.7 km/h 74% 0 mm 0 W/m2
03:30 -2.2 °C -6.1 °C 1013.8 hPa NW 1.6 km/h 11.3 km/h 75% 0 mm 0 W/m2
04:04 -2.3 °C -6.3 °C 1014.1 hPa WNW 1.8 km/h 11.3 km/h 74.1% 0 mm 0 W/m2
04:09 -2.3 °C -6.3 °C 1014.1 hPa WNW 0.6 km/h 4.8 km/h 74% 0 mm 0 W/m2
04:14 -2.3 °C -6.4 °C 1014.1 hPa Calm   4.8 km/h 73.5% 0 mm 0 W/m2
04:19 -2.3 °C -6.5 °C 1014.1 hPa Calm   4.8 km/h 73% 0 mm 0 W/m2
04:24 -2.3 °C -6.5 °C 1014.1 hPa Calm   4.8 km/h 73% 0 mm 0 W/m2
04:29 -2.4 °C -6.5 °C 1014.1 hPa Calm   4.8 km/h 73.5% 0 mm 0 W/m2
04:34 -2.4 °C -6.4 °C 1014.1 hPa Calm   4.8 km/h 74% 0 mm 0 W/m2
04:39 -2.4 °C -6.4 °C 1014.1 hPa Calm     74.3% 0 mm 0 W/m2
04:44 -2.5 °C -6.5 °C 1014.1 hPa Calm     74% 0 mm 0 W/m2
04:49 -2.6 °C -6.6 °C 1014.1 hPa Calm     74% 0 mm 0 W/m2
04:54 -2.6 °C -6.5 °C 1014.1 hPa Calm     74.6% 0 mm 0 W/m2
04:59 -2.6 °C -6.4 °C 1014.1 hPa Calm     75% 0 mm 0 W/m2
05:04 -2.7 °C -6.5 °C 1014.1 hPa Calm     75% 0 mm 0 W/m2
05:09 -2.7 °C -6.5 °C 1014.1 hPa Calm     75% 0 mm 0 W/m2
05:14 -2.7 °C -6.4 °C 1014.1 hPa Calm     75.7% 0 mm 0 W/m2
05:19 -2.8 °C -6.4 °C 1014.1 hPa Calm     76% 0 mm 0 W/m2
05:24 -2.9 °C -6.6 °C 1014.4 hPa Calm     76% 0 mm 0 W/m2
05:29 -3 °C -6.6 °C 1014.4 hPa Calm     76% 0 mm 0 W/m2
05:34 -3.1 °C -6.6 °C 1014.4 hPa Calm     76.4% 0 mm 0 W/m2
05:39 -3.1 °C -6.6 °C 1014.4 hPa Calm     77% 0 mm 0 W/m2
05:44 -3.2 °C -6.6 °C 1014.4 hPa Calm     77% 0 mm 0 W/m2
05:49 -3.2 °C -6.6 °C 1014.4 hPa Calm     77% 0 mm 0 W/m2
05:54 -3.1 °C -6.5 °C 1014.4 hPa Calm     77% 0 mm 0 W/m2
05:59 -3.1 °C -6.5 °C 1014.4 hPa Calm     77% 0 mm 0 W/m2
06:04 -3.1 °C -6.5 °C 1014.4 hPa Calm     77% 0 mm 0 W/m2
06:09 -3.1 °C -6.6 °C 1014.8 hPa Calm     77% 0 mm 0 W/m2
06:14 -3.1 °C -6.6 °C 1014.8 hPa Calm     77% 0 mm 0 W/m2
06:19 -3.1 °C -6.5 °C 1014.8 hPa WNW 0.2 km/h 4.8 km/h 77.4% 0 mm 0 W/m2
06:24 -3 °C -6.3 °C 1014.8 hPa Calm   4.8 km/h 77.7% 0 mm 0 W/m2
06:29 -3 °C -6.4 °C 1014.8 hPa Calm   4.8 km/h 77% 0 mm 0 W/m2
06:34 -2.9 °C -6.2 °C 1014.8 hPa Calm   4.8 km/h 77.8% 0 mm 0 W/m2
06:39 -2.9 °C -6.3 °C 1014.8 hPa Calm     77% 0 mm 0 W/m2
06:44 -2.9 °C -6.3 °C 1014.8 hPa Calm     77.4% 0 mm 0 W/m2
06:49 -3 °C -6.3 °C 1014.8 hPa Calm     78% 0 mm 0 W/m2
06:54 -3.1 °C -6.4 °C 1015.1 hPa Calm     78% 0 mm 0 W/m2
06:59 -3.2 °C -6.3 °C 1015.1 hPa Calm     78.8% 0 mm 5 W/m2
07:04 -3.2 °C -6.3 °C 1015.1 hPa Calm     79% 0 mm 7 W/m2
07:09 -3.2 °C -6.3 °C 1015.1 hPa Calm     79.1% 0 mm 9 W/m2
07:14 -3.2 °C -6.1 °C 1015.1 hPa Calm     80% 0 mm 11 W/m2
07:19 -3.2 °C -6.1 °C 1015.1 hPa Calm     80% 0 mm 14 W/m2
07:24 -3.2 °C -6.1 °C 1015.1 hPa Calm     80% 0 mm 19 W/m2
07:29 -3.1 °C -5.9 °C 1015.5 hPa Calm     80.8% 0 mm 35 W/m2
07:34 -3 °C -5.8 °C 1015.5 hPa Calm     81.1% 0 mm 65 W/m2
07:39 -2.7 °C -5.4 °C 1015.5 hPa Calm     82% 0 mm 69 W/m2
07:44 -2.4 °C -5.1 °C 1015.5 hPa Calm     81.6% 0 mm 104 W/m2
07:49 -2.1 °C -4.9 °C 1015.5 hPa Calm     80.8% 0 mm 97 W/m2
07:54 -1.8 °C -4.9 °C 1015.5 hPa Calm     79.5% 0 mm 83 W/m2
07:59 -1.6 °C -4.9 °C 1015.5 hPa Calm     78.5% 0 mm 114 W/m2
08:04 -1.3 °C -4.6 °C 1015.5 hPa Calm     78% 0 mm 142 W/m2
08:09 -1.1 °C -4.4 °C 1015.5 hPa Calm     78% 0 mm 192 W/m2
08:14 -0.6 °C -4 °C 1015.5 hPa Calm     77.4% 0 mm 220 W/m2
08:19 0.1 °C -3.8 °C 1015.5 hPa Calm     75.5% 0 mm 269 W/m2
08:24 0.6 °C -3.9 °C 1015.5 hPa Calm     71.9% 0 mm 181 W/m2
08:29 0.6 °C -4.2 °C 1015.5 hPa Calm     70% 0 mm 241 W/m2
08:34 0.5 °C -4.3 °C 1015.5 hPa Calm     69.9% 0 mm 209 W/m2
08:39 0.2 °C -4.7 °C 1015.1 hPa Calm     69.5% 0 mm 199 W/m2
08:44 0.1 °C -4.6 °C 1015.5 hPa Calm     70.9% 0 mm 218 W/m2
08:49 0.1 °C -4.4 °C 1015.5 hPa Calm     71.8% 0 mm 102 W/m2
08:54 0.1 °C -4.3 °C 1015.5 hPa Calm     72% 0 mm 109 W/m2
08:59 0.2 °C -4.3 °C 1015.5 hPa Calm     72% 0 mm 109 W/m2
09:04 0.2 °C -4.3 °C 1015.1 hPa Calm     71.9% 0 mm 125 W/m2
09:09 0.2 °C -4.4 °C 1015.1 hPa Calm     71.5% 0 mm 135 W/m2
09:14 0.1 °C -4.7 °C 1015.1 hPa Calm     70% 0 mm 142 W/m2
09:19 0.1 °C -4.6 °C 1015.1 hPa Calm     70.8% 0 mm 165 W/m2
09:24 0.2 °C -4.4 °C 1015.1 hPa Calm     71% 0 mm 167 W/m2
09:29 0.2 °C -4.6 °C 1015.1 hPa Calm     70.1% 0 mm 200 W/m2
09:34 0.3 °C -4.4 °C 1015.1 hPa Calm     70.7% 0 mm 232 W/m2
09:39 0.4 °C -4.2 °C 1015.1 hPa Calm     71% 0 mm 232 W/m2
09:44 0.7 °C -4.1 °C 1015.1 hPa Calm     70.6% 0 mm 190 W/m2
09:49 0.8 °C -3.9 °C 1015.5 hPa Calm     70.1% 0 mm 193 W/m2
09:54 1 °C -3.9 °C 1015.1 hPa Calm     69.5% 0 mm 172 W/m2
09:59 1.1 °C -4.1 °C 1015.1 hPa Calm     68.6% 0 mm 160 W/m2
10:04 1.2 °C -4 °C 1015.1 hPa Calm     68.4% 0 mm 153 W/m2
10:09 1.3 °C -3.9 °C 1015.1 hPa Calm     68.3% 0 mm 165 W/m2
10:14 1.3 °C -3.9 °C 1014.8 hPa Calm     68% 0 mm 220 W/m2
10:19 1.4 °C -3.8 °C 1015.1 hPa Calm     68.4% 0 mm 193 W/m2
10:24 1.4 °C -3.9 °C 1014.8 hPa Calm     67.6% 0 mm 148 W/m2
10:29 1.4 °C -3.8 °C 1014.8 hPa Calm     68.1% 0 mm 156 W/m2
10:34 1.5 °C -3.6 °C 1014.8 hPa Calm     69% 0 mm 181 W/m2
10:39 1.6 °C -3.6 °C 1014.4 hPa West 0.2 km/h 3.2 km/h 68.4% 0 mm 211 W/m2
10:44 1.6 °C -3.7 °C 1014.4 hPa Calm   3.2 km/h 67.9% 0 mm 234 W/m2
10:49 1.7 °C -3.6 °C 1014.4 hPa Calm   3.2 km/h 68% 0 mm 234 W/m2
10:54 1.7 °C -3.5 °C 1014.4 hPa Calm   3.2 km/h 68.4% 0 mm 220 W/m2
10:59 1.7 °C -3.6 °C 1014.1 hPa West 0.5 km/h 4.8 km/h 68% 0 mm 169 W/m2
11:04 1.7 °C -3.6 °C 1014.1 hPa Calm   4.8 km/h 68% 0 mm 132 W/m2
11:09 1.6 °C -3.7 °C 1014.1 hPa Calm     68% 0 mm 125 W/m2
11:14 1.4 °C -3.7 °C 1014.1 hPa Calm     68.6% 0 mm 120 W/m2
11:19 1.4 °C -3.6 °C 1014.1 hPa Calm     69.4% 0 mm 114 W/m2
11:24 1.5 °C -3.4 °C 1014.1 hPa Calm     70% 0 mm 102 W/m2
11:29 1.6 °C -3.4 °C 1013.8 hPa Calm     69.8% 0 mm 84 W/m2
11:34 1.6 °C -3.3 °C 1013.8 hPa Calm     70% 0 mm 83 W/m2
11:39 1.7 °C -3.3 °C 1013.8 hPa West 0.2 km/h 4.8 km/h 69.6% 0 mm 91 W/m2
11:44 1.7 °C -3.5 °C 1013.8 hPa West 0.2 km/h 4.8 km/h 68.3% 0 mm 121 W/m2
11:49 1.7 °C -3.3 °C 1013.8 hPa Calm   4.8 km/h 69% 0 mm 144 W/m2
11:54 1.8 °C -3.2 °C 1013.8 hPa West 1 km/h 8 km/h 69% 0 mm 148 W/m2
11:59 1.9 °C -3.1 °C 1013.8 hPa WSW 1.3 km/h 9.7 km/h 69% 0 mm 144 W/m2
12:00 2.1 °C -3.1 °C 1013.8 hPa WSW 3.2 km/h 9.7 km/h 69% 0 mm 139 W/m2
12:09 2.2 °C -3.1 °C 1013.8 hPa WSW 0.3 km/h 3.2 km/h 68% 0 mm 160 W/m2
12:14 2.3 °C -3.1 °C 1013.4 hPa Calm   3.2 km/h 67.3% 0 mm 172 W/m2
12:19 2.5 °C -2.8 °C 1013.4 hPa WSW 0.2 km/h 3.2 km/h 68% 0 mm 172 W/m2
12:24 2.6 °C -2.6 °C 1013.4 hPa Calm   3.2 km/h 68.3% 0 mm 169 W/m2
12:29 2.8 °C -2.7 °C 1013.4 hPa WSW 0.3 km/h 3.2 km/h 67.3% 0 mm 151 W/m2
12:34 2.9 °C -2.4 °C 1013.4 hPa WSW 0.6 km/h 8 km/h 67.8% 0 mm 149 W/m2
12:39 3.1 °C -2.3 °C 1013.4 hPa WSW 3.4 km/h 9.7 km/h 67.7% 0 mm 151 W/m2
12:44 3.2 °C -2.4 °C 1013.4 hPa SW 3.7 km/h 14.5 km/h 67% 0 mm 149 W/m2
12:49 3.2 °C -2.3 °C 1013.4 hPa SW 3.1 km/h 14.5 km/h 67% 0 mm 146 W/m2
12:54 3.3 °C -2.2 °C 1013.4 hPa SW 2.1 km/h 14.5 km/h 67% 0 mm 153 W/m2
12:59 3.4 °C -2.1 °C 1013.1 hPa WSW 1.3 km/h 14.5 km/h 67.2% 0 mm 160 W/m2
13:04 3.5 °C -2.2 °C 1013.1 hPa WSW 1 km/h 14.5 km/h 66.3% 0 mm 158 W/m2
13:09 3.6 °C -2.1 °C 1013.1 hPa WSW 1.4 km/h 4.8 km/h 66.2% 0 mm 162 W/m2
13:14 3.7 °C -1.9 °C 1013.1 hPa WSW 2.3 km/h 9.7 km/h 66.7% 0 mm 172 W/m2
13:19 3.8 °C -1.9 °C 1013.1 hPa WSW 0.8 km/h 9.7 km/h 66.3% 0 mm 176 W/m2
13:24 3.9 °C -1.8 °C 1013.1 hPa SW 1.3 km/h 9.7 km/h 66.1% 0 mm 169 W/m2
13:29 4.1 °C -1.7 °C 1013.1 hPa SW 1 km/h 9.7 km/h 65.9% 0 mm 141 W/m2
13:34 4.1 °C -1.8 °C 1013.1 hPa SW 1.8 km/h 11.3 km/h 65% 0 mm 130 W/m2
13:39 4.2 °C -1.9 °C 1013.1 hPa SW 3.4 km/h 16.1 km/h 64.5% 0 mm 113 W/m2
13:44 4.2 °C -2.1 °C 1013.1 hPa SW 3.5 km/h 16.1 km/h 64% 0 mm 91 W/m2
13:49 4.1 °C -2.1 °C 1013.1 hPa SW 1.8 km/h 16.1 km/h 64.3% 0 mm 125 W/m2
13:54 4.1 °C -1.9 °C 1013.1 hPa SW 1.4 km/h 16.1 km/h 64.8% 0 mm 125 W/m2
13:59 4.1 °C -1.9 °C 1013.1 hPa SW 2.6 km/h 16.1 km/h 65% 0 mm 113 W/m2
14:04 4.1 °C -2 °C 1012.8 hPa SW 5 km/h 16.1 km/h 64.5% 0 mm 111 W/m2
14:09 4.1 °C -2.1 °C 1012.8 hPa WSW 4.5 km/h 17.7 km/h 64% 0 mm 107 W/m2
14:14 4 °C -2.1 °C 1012.8 hPa WSW 2.9 km/h 17.7 km/h 64.2% 0 mm 100 W/m2
14:19 4 °C -2 °C 1012.8 hPa WSW 2.3 km/h 17.7 km/h 64.8% 0 mm 90 W/m2
14:24 4 °C -2 °C 1012.8 hPa WSW 3.9 km/h 17.7 km/h 64.9% 0 mm 79 W/m2
14:29 3.9 °C -2.1 °C 1012.8 hPa SW 1.8 km/h 17.7 km/h 65% 0 mm 98 W/m2
14:34 4 °C -1.9 °C 1012.8 hPa WSW 1 km/h 17.7 km/h 65.6% 0 mm 111 W/m2
14:39 4.1 °C -1.7 °C 1012.4 hPa WSW 1.3 km/h 9.7 km/h 66% 0 mm 118 W/m2
14:44 4.1 °C -1.7 °C 1012.4 hPa WSW 0.8 km/h 9.7 km/h 65.8% 0 mm 109 W/m2
14:49 4.2 °C -1.8 °C 1012.4 hPa WSW 2.3 km/h 11.3 km/h 65.1% 0 mm 98 W/m2
14:54 4.2 °C -1.8 °C 1012.4 hPa WSW 1.8 km/h 11.3 km/h 65% 0 mm 69 W/m2
14:59 4.1 °C -1.8 °C 1012.4 hPa SW 1.6 km/h 11.3 km/h 65.5% 0 mm 62 W/m2
15:04 4.1 °C -1.7 °C 1012.4 hPa SW 0.8 km/h 11.3 km/h 66.3% 0 mm 72 W/m2
15:09 4.1 °C -1.6 °C 1012.4 hPa SW 3.5 km/h 12.9 km/h 66.6% 0 mm 72 W/m2
15:14 4 °C -1.6 °C 1012.4 hPa WSW 2.3 km/h 12.9 km/h 67% 0 mm 47 W/m2
15:19 3.9 °C -1.6 °C 1012.4 hPa SW 2.3 km/h 12.9 km/h 67.3% 0 mm 37 W/m2
15:24 3.9 °C -1.4 °C 1012.4 hPa SW 1.8 km/h 12.9 km/h 68% 0 mm 40 W/m2
15:29 3.8 °C -1.3 °C 1012.4 hPa SW 2.1 km/h 12.9 km/h 68.9% 0 mm 40 W/m2
15:34 3.8 °C -1.3 °C 1012.4 hPa SW 1.6 km/h 12.9 km/h 69% 0 mm 32 W/m2
15:39 3.8 °C -1.2 °C 1012.4 hPa SW 1.1 km/h 6.4 km/h 69.9% 0 mm 19 W/m2
15:44 3.7 °C -1.2 °C 1012.4 hPa WSW 1 km/h 8 km/h 70% 0 mm 16 W/m2
15:49 3.7 °C -1.3 °C 1012.4 hPa WSW 2.1 km/h 9.7 km/h 70% 0 mm 12 W/m2
15:54 3.7 °C -1.2 °C 1012.4 hPa WSW 1.4 km/h 9.7 km/h 70.3% 0 mm 12 W/m2
15:58 3.6 °C -1.2 °C 1012.4 hPa WSW 2.6 km/h 9.7 km/h 71% 0 mm 12 W/m2
16:04 3.6 °C -1.1 °C 1012.4 hPa WSW 1.1 km/h 3.2 km/h 71.9% 0 mm 5 W/m2
16:09 3.5 °C -1.1 °C 1012.4 hPa Calm   3.2 km/h 72% 0 mm 5 W/m2
16:14 3.5 °C -0.8 °C 1012.4 hPa Calm   3.2 km/h 73.3% 0 mm 5 W/m2
16:19 3.4 °C -1.2 °C 1012.4 hPa WSW 2.4 km/h 9.7 km/h 72% 0 mm 0 W/m2
16:24 3.3 °C -1.2 °C 1012.4 hPa SW 0.6 km/h 9.7 km/h 72.4% 0 mm 0 W/m2
16:29 3.3 °C -1.1 °C 1012.4 hPa WSW 2.6 km/h 9.7 km/h 73% 0 mm 0 W/m2
16:34 3.3 °C -1.1 °C 1012.4 hPa WSW 1.1 km/h 9.7 km/h 73% 0 mm 0 W/m2
16:39 3.3 °C -0.9 °C 1012.4 hPa WSW 2.9 km/h 11.3 km/h 73.8% 0 mm 0 W/m2
16:44 3.3 °C -0.9 °C 1012.4 hPa SW 4 km/h 11.3 km/h 74% 0 mm 0 W/m2
16:49 3.2 °C -0.9 °C 1012.4 hPa WSW 1.6 km/h 11.3 km/h 74% 0 mm 0 W/m2
16:54 3.2 °C -0.8 °C 1012.4 hPa WSW 3.4 km/h 11.3 km/h 74.8% 0 mm 0 W/m2
16:59 3.2 °C -0.8 °C 1012.4 hPa WSW 0.6 km/h 11.3 km/h 75% 0 mm 0 W/m2
17:04 3.2 °C -0.8 °C 1012.4 hPa WSW 0.8 km/h 11.3 km/h 75% 0 mm 0 W/m2
17:09 3.1 °C -0.8 °C 1012.4 hPa SW 1.9 km/h 11.3 km/h 75.3% 0 mm 0 W/m2
17:14 3.1 °C -0.7 °C 1012.4 hPa SW 5.5 km/h 16.1 km/h 76.3% 0 mm 0 W/m2
17:19 2.9 °C -0.7 °C 1012.4 hPa SW 2.3 km/h 16.1 km/h 77% 0 mm 0 W/m2
17:24 2.9 °C -0.6 °C 1012.4 hPa SW 3.2 km/h 16.1 km/h 77.6% 0 mm 0 W/m2
17:29 2.8 °C -0.6 °C 1012.4 hPa SW 1.9 km/h 16.1 km/h 78.1% 0 mm 0 W/m2
17:34 2.8 °C -0.5 °C 1012.4 hPa SW 0.5 km/h 16.1 km/h 79% 0 mm 0 W/m2
17:39 2.7 °C -0.6 °C 1012.4 hPa SW 3.2 km/h 9.7 km/h 79% 0 mm 0 W/m2
17:44 2.7 °C -0.5 °C 1012.4 hPa SW 1.6 km/h 9.7 km/h 79.2% 0 mm 0 W/m2
17:49 2.7 °C -0.4 °C 1012.4 hPa SW 1.1 km/h 9.7 km/h 80% 0 mm 0 W/m2
17:54 2.7 °C -0.4 °C 1012.4 hPa SW 2.4 km/h 9.7 km/h 80% 0 mm 0 W/m2
17:59 2.7 °C -0.4 °C 1012.4 hPa SW 0.5 km/h 9.7 km/h 80.2% 0 mm 0 W/m2
18:04 2.6 °C -0.4 °C 1012.4 hPa SW 0.3 km/h 9.7 km/h 80.4% 0 mm 0 W/m2
18:09 2.6 °C -0.3 °C 1012.4 hPa SW 0.3 km/h 4.8 km/h 81% 0 mm 0 W/m2
18:14 2.6 °C -0.3 °C 1012.4 hPa SW 0.3 km/h 4.8 km/h 81% 0 mm 0 W/m2
18:19 2.6 °C -0.3 °C 1012.4 hPa SW 0.5 km/h 4.8 km/h 81% 0 mm 0 W/m2
18:24 2.6 °C -0.3 °C 1012.4 hPa SW 0.3 km/h 4.8 km/h 81.6% 0 mm 0 W/m2
18:29 2.6 °C -0.2 °C 1012.4 hPa Calm   4.8 km/h 81.8% 0 mm 0 W/m2
18:34 2.6 °C -0.2 °C 1012.4 hPa SW 0.2 km/h 4.8 km/h 82% 0 mm 0 W/m2
18:39 2.5 °C -0.3 °C 1012.4 hPa SW 0.2 km/h 4.8 km/h 82% 0 mm 0 W/m2
18:44 2.5 °C -0.3 °C 1012.8 hPa SW 1.1 km/h 6.4 km/h 82% 0 mm 0 W/m2
18:45 2.5 °C -0.3 °C 1012.8 hPa Calm   6.4 km/h 82% 0 mm 0 W/m2
19:00 2.6 °C -0.2 °C 1012.4 hPa Calm   6.4 km/h 82% 0 mm 0 W/m2
19:30 2.5 °C -0.3 °C 1012.4 hPa Calm   6.4 km/h 82% 0 mm 0 W/m2
20:04 2.3 °C -0.3 °C 1012.8 hPa Calm   6.4 km/h 82.9% 0 mm 0 W/m2
20:09 2.2 °C -0.3 °C 1012.8 hPa Calm     83% 0 mm 0 W/m2
20:14 2.2 °C -0.3 °C 1012.8 hPa Calm     83% 0 mm 0 W/m2
20:19 2.2 °C -0.3 °C 1012.8 hPa Calm     83% 0 mm 0 W/m2
20:24 2.2 °C -0.3 °C 1012.8 hPa Calm     83% 0 mm 0 W/m2
20:29 2.2 °C -0.3 °C 1012.8 hPa Calm     83% 0 mm 0 W/m2
20:34 2.2 °C -0.3 °C 1012.8 hPa Calm     83.2% 0 mm 0 W/m2
20:39 2.2 °C -0.2 °C 1012.8 hPa Calm     83.8% 0 mm 0 W/m2
20:44 2.3 °C -0.2 °C 1012.8 hPa Calm     84% 0 mm 0 W/m2
20:49 2.3 °C -0.3 °C 1012.8 hPa Calm     83.1% 0 mm 0 W/m2
20:54 2.3 °C -0.2 °C 1012.8 hPa Calm     83% 0 mm 0 W/m2
20:59 2.4 °C -0.1 °C 1012.8 hPa Calm     83.6% 0 mm 0 W/m2
21:04 2.4 °C -0.1 °C 1012.8 hPa SW 0.5 km/h 6.4 km/h 83% 0 mm 0 W/m2
21:09 2.5 °C -0.1 °C 1012.8 hPa SW 0.2 km/h 6.4 km/h 83% 0 mm 0 W/m2
21:13 2.6 °C -0.1 °C 1012.8 hPa Calm   6.4 km/h 83% 0 mm 0 W/m2
21:30 2.7 °C -0.1 °C 1012.8 hPa Calm   8 km/h 82% 0 mm 0 W/m2
22:00 3 °C 0.1 °C 1012.4 hPa WSW 1.6 km/h 16.1 km/h 81% 0 mm 0 W/m2
22:30 3 °C -0.1 °C 1012.8 hPa Calm   8 km/h 80% 0 mm 0 W/m2
23:04 2.7 °C -0.3 °C 1012.8 hPa SW 0.8 km/h 8 km/h 80% 0 mm 0 W/m2
23:09 2.7 °C -0.4 °C 1012.8 hPa SW 0.3 km/h 4.8 km/h 80.4% 0 mm 0 W/m2
23:14 2.6 °C -0.3 °C 1012.8 hPa SW 0.2 km/h 4.8 km/h 81% 0 mm 0 W/m2
23:19 2.5 °C -0.4 °C 1012.8 hPa Calm   4.8 km/h 81% 0 mm 0 W/m2
23:24 2.4 °C -0.6 °C 1012.8 hPa Calm   4.8 km/h 81% 0 mm 0 W/m2
23:29 2.3 °C -0.6 °C 1012.8 hPa Calm   4.8 km/h 81.5% 0 mm 0 W/m2
23:34 2.2 °C -0.6 °C 1012.8 hPa Calm   4.8 km/h 82% 0 mm 0 W/m2
23:39 2.2 °C -0.6 °C 1012.8 hPa SW 0.2 km/h 4.8 km/h 82% 0 mm 0 W/m2
23:44 2.2 °C -0.5 °C 1012.4 hPa Calm   4.8 km/h 82.4% 0 mm 0 W/m2
23:49 2.1 °C -0.5 °C 1012.4 hPa Calm   4.8 km/h 82.8% 0 mm 0 W/m2
23:54 2.1 °C -0.4 °C 1012.4 hPa Calm   4.8 km/h 83% 0 mm 0 W/m2
23:59 2.1 °C -0.4 °C 1012.1 hPa Calm   4.8 km/h 83% 0 mm 0 W/m2
Hartford County Weather
Compliments of Weather Underground - 2 mb